Latest Coastal Weather Observations for Learmonth

IDW60701

Issued at 7:25 am WST Monday 21 April 2014 (issued every 10 minutes, with the page automatically refreshed every 10 minutes)

About coastal observations | Map of coastal stations | Coastal observations for WA | Marine services | Other Formats
Station Details ID: 005007 Name: LEARMONTH AIRPORT Lat: -22.24 Lon: 114.10 Height: 5.0 m
Data from the previous 72 hours. | See also: Recent months at Learmonth
Date/Time
WST
Temp

°C
Wind Pressure Rain
since 9am
mm
Weather Cloud Vis
km
Sea
Height
m
Swell
Dir
 
Speed
knots
Gust
knots
hPa Trend Height
m
Period
s
Dir
21/07:00am 18.5 SSW 7 9 1014.0 - 0.0 - - 10 - - - -
21/06:30am 18.4 SSW 9 11 1013.7 - 0.0 - - 10 - - - -
21/06:00am 18.7 SSW 9 11 1013.3 R 0.0 Haze Mostly cloudy 27 - - - -
21/05:30am 19.1 SSW 9 11 1013.3 - 0.0 - - 10 - - - -
21/05:00am 19.3 SSW 9 12 1012.9 - 0.0 - - 10 - - - -
21/04:30am 19.8 SSW 10 13 1012.8 - 0.0 - - 10 - - - -
21/04:00am 20.3 SSW 11 14 1012.7 - 0.0 - - 10 - - - -
21/03:30am 20.5 SSW 11 13 1012.6 - 0.0 - - 10 - - - -
21/03:00am 20.5 SSW 11 13 1012.4 - 0.0 - - 10 - - - -
21/02:30am 20.6 SSW 9 12 1012.3 - 0.0 - - 10 - - - -
21/02:00am 21.0 SSW 9 13 1012.3 - 0.0 - - 10 - - - -
21/01:30am 21.6 SW 12 15 1012.2 - 0.0 - - 10 - - - -
21/01:00am 21.8 SSW 11 14 1012.1 - 0.0 - - 10 - - - -
21/12:30am 22.0 SSW 11 13 1012.1 - 0.0 - - 10 - - - -
21/12:00am 22.6 SSW 10 14 1012.1 - 0.0 - - 10 - - - -
 
Date/Time
WST
Temp

°C
Wind Pressure Rain
since 9am
mm
Weather Cloud Vis
km
Sea
Height
m
Swell
Dir
 
Speed
knots
Gust
knots
hPa Trend Height
m
Period
s
Dir
20/11:30pm 22.9 SSW 10 12 1012.0 - 0.0 - - 10 - - - -
20/11:00pm 23.5 SSW 9 12 1012.0 - 0.0 - - 10 - - - -
20/10:30pm 24.2 SSW 11 13 1012.0 - 0.0 - - 10 - - - -
20/10:00pm 25.0 SSW 11 14 1012.0 - 0.0 - - 10 - - - -
20/09:30pm 25.9 SSW 11 14 1011.9 - 0.0 - - 10 - - - -
20/09:00pm 25.9 SW 10 13 1011.7 - 0.0 - - 10 - - - -
20/08:30pm 26.0 SW 9 11 1011.6 - 0.0 - - 10 - - - -
20/08:00pm 26.6 SW 11 15 1011.3 - 0.0 - - 10 - - - -
20/07:30pm 27.6 SW 11 15 1011.1 - 0.0 - - 10 - - - -
20/07:00pm 28.7 SW 11 14 1010.8 - 0.0 - - 10 - - - -
20/06:30pm 29.8 SW 11 15 1010.6 - 0.0 - - 10 - - - -
20/06:00pm 31.4 SW 13 17 1010.2 - 0.0 - - - - - - -
20/05:30pm 33.2 SW 12 17 1010.1 - 0.0 - - 10 - - - -
20/05:00pm 35.3 NW 4 9 1010.0 - 0.0 - - 10 - - - -
20/04:30pm 35.1 NW 3 5 1009.9 - 0.0 - - 10 - - - -
20/04:00pm 35.1 W 3 5 1010.0 - 0.0 - - 10 - - - -
20/03:30pm 33.9 E 4 6 1010.1 - 0.0 - - 10 - - - -
20/03:00pm 33.8 ENE 7 9 1010.0 F 0.0 Fine Mostly clear 30 - - - -
20/02:30pm 34.1 ENE 8 10 1010.2 - 0.0 - - 10 - - - -
20/02:00pm 33.2 E 9 11 1010.4 - 0.0 - - 10 - - - -
20/01:30pm 33.1 E 8 10 1010.8 - 0.0 - - 10 - - - -
20/01:00pm 32.9 E 8 10 1011.3 - 0.0 - - 10 - - - -
20/12:30pm 31.7 ESE 7 10 1011.7 - 0.0 - - 10 - - - -
20/12:00pm 31.3 SE 8 12 1012.0 F 0.0 Haze Partly cloudy 27 - - - -
20/11:30am 31.0 ESE 9 11 1012.7 - 0.0 - - 10 - - - -
20/11:00am 30.5 SE 10 14 1013.1 - 0.0 - - 10 - - - -
20/10:30am 30.4 SE 10 15 1013.4 - 0.0 - - 10 - - - -
20/10:00am 29.0 SSE 8 13 1013.7 - 0.0 - - 10 - - - -
20/09:30am 28.1 S 9 13 1013.6 - 0.0 - - 10 - - - -
20/09:00am 26.2 S 7 10 1013.6 F 0.0 Haze Mostly cloudy 27 - - - -
20/08:30am 24.8 SSW 8 10 1014.0 - 0.0 - - 10 - - - -
20/08:00am 23.2 SSW 6 8 1013.9 - 0.0 - - 10 - - - -
20/07:30am 21.0 SW 7 8 1013.8 - 0.0 - - 10 - - - -
20/07:00am 18.9 SW 7 7 1013.5 - 0.0 - - 10 - - - -
20/06:30am 19.8 WSW 6 7 1013.2 - 0.0 - - 10 - - - -
20/06:00am 19.8 SW 6 7 1013.0 R 0.0 Fine Partly cloudy 30 - - - -
20/05:30am 19.7 SW 5 7 1012.9 - 0.0 - - 10 - - - -
20/05:00am 20.0 WSW 5 6 1012.7 - 0.0 - - 10 - - - -
20/04:30am 20.9 WSW 4 6 1012.3 - 0.0 - - 10 - - - -
20/04:00am 20.6 SW 6 7 1012.2 - 0.0 - - 10 - - - -
20/03:30am 20.5 SW 7 8 1012.2 - 0.0 - - 10 - - - -
20/03:00am 21.0 SW 7 9 1012.1 - 0.0 - - 10 - - - -
20/02:30am 21.0 SW 7 9 1012.3 - 0.0 - - 10 - - - -
20/02:00am 21.6 SSW 8 9 1012.3 - 0.0 - - 10 - - - -
20/01:30am 22.4 SSW 9 10 1012.5 - 0.0 - - 10 - - - -
20/01:00am 22.5 SSW 8 9 1012.6 - 0.0 - - 10 - - - -
20/12:30am 23.1 SSW 7 9 1012.5 - 0.0 - - 10 - - - -
20/12:00am 23.8 SW 7 9 1012.4 - 0.0 - - 10 - - - -
 
Date/Time
WST
Temp

°C
Wind Pressure Rain
since 9am
mm
Weather Cloud Vis
km
Sea
Height
m
Swell
Dir
 
Speed
knots
Gust
knots
hPa Trend Height
m
Period
s
Dir
19/11:30pm 24.5 SW 8 10 1012.6 - 0.0 - - 10 - - - -
19/11:00pm 25.3 SW 10 14 1012.8 - 0.0 - - 10 - - - -
19/10:30pm 25.9 SSW 10 14 1012.9 - 0.0 - - 10 - - - -
19/10:00pm 26.1 SSW 11 14 1012.9 - 0.0 - - 10 - - - -
19/09:30pm 26.1 SSW 9 12 1012.8 - 0.0 - - 10 - - - -
19/09:00pm 26.9 SSW 10 13 1012.7 - 0.0 - - 10 - - - -
19/08:30pm 27.3 SW 9 12 1012.8 - 0.0 - - 10 - - - -
19/08:00pm 27.5 SSW 8 10 1012.6 - 0.0 - - 10 - - - -
19/07:30pm 28.5 SW 9 14 1012.1 - 0.0 - - 10 - - - -
19/07:00pm 29.4 SW 8 11 1011.8 - 0.0 - - 10 - - - -
19/06:30pm 30.9 SW 10 13 1011.4 - 0.0 - - 10 - - - -
19/06:00pm 32.3 SW 13 17 1011.1 - 0.0 - - 10 - - - -
19/05:30pm 32.8 N 5 7 1011.1 - 0.0 - - 10 - - - -
19/05:00pm 33.2 NNE 7 9 1010.9 - 0.0 - - 10 - - - -
19/04:30pm 34.2 NNE 6 9 1010.8 - 0.0 - - 10 - - - -
19/04:00pm 34.0 ENE 7 9 1010.9 - 0.0 - - 10 - - - -
19/03:30pm 34.0 ENE 9 11 1010.8 - 0.0 - - 10 - - - -
19/03:00pm 34.2 ENE 9 11 1010.8 - 0.0 - - 10 - - - -
19/02:30pm 34.4 ENE 8 10 1011.0 - 0.0 - - 10 - - - -
19/02:00pm 34.8 ENE 8 10 1011.2 - 0.0 - - 10 - - - -
19/01:30pm 34.8 E 10 12 1011.6 - 0.0 - - 10 - - - -
19/01:00pm 35.0 E 10 15 1012.0 - 0.0 - - 10 - - - -
19/12:30pm 34.4 E 11 15 1012.5 - 0.0 - - 10 - - - -
19/12:00pm 34.1 E 10 14 1013.0 - 0.0 - - 10 - - - -
19/11:30am 34.6 S 8 12 1013.5 - 0.0 - - 10 - - - -
19/11:00am 33.7 SSE 7 11 1013.8 - 0.0 - - 10 - - - -
19/10:30am 32.9 SSE 7 10 1014.2 - 0.0 - - 10 - - - -
19/10:00am 31.7 SSE 8 10 1014.6 - 0.0 - - 10 - - - -
19/09:30am 29.6 S 7 9 1014.8 - 0.0 - - 10 - - - -
19/09:00am 27.5 S 8 11 1014.9 - 0.0 - - 10 - - - -
19/08:30am 25.5 SSW 9 11 1014.9 - 0.0 - - 10 - - - -
19/08:00am 23.4 SSW 6 9 1014.8 - 0.0 - - 10 - - - -
19/07:30am 19.0 SSW 4 6 1014.8 - 0.0 - - 10 - - - -
19/07:00am 17.0 SSW 6 6 1014.6 - 0.0 - - 10 - - - -
19/06:30am 16.8 S 5 6 1014.5 - 0.0 - - 10 - - - -
19/06:00am 17.2 SW 5 6 1014.3 - 0.0 - - 10 - - - -
19/05:30am 17.9 SW 6 7 1014.3 - 0.0 - - 10 - - - -
19/05:00am 18.2 SW 6 6 1014.3 - 0.0 - - 10 - - - -
19/04:30am 18.6 SW 4 5 1014.4 - 0.0 - - 10 - - - -
19/04:00am 19.9 SW 4 5 1014.3 - 0.0 - - 10 - - - -
19/03:30am 20.6 WSW 5 5 1014.4 - 0.0 - - 10 - - - -
19/03:00am 20.7 SW 5 5 1014.4 - 0.0 - - 10 - - - -
19/02:30am 21.1 SW 6 8 1014.7 - 0.0 - - 10 - - - -
19/02:00am 21.7 SW 6 7 1015.1 - 0.0 - - 10 - - - -
19/01:30am 21.2 SW 7 7 1015.3 - 0.0 - - 9 - - - -
19/01:00am 20.6 SSW 6 8 1015.3 - 0.0 - - 10 - - - -
19/12:30am 20.1 S 7 8 1015.2 - 0.0 - - 10 - - - -
19/12:00am 20.2 S 7 7 1015.0 - 0.0 - - 10 - - - -
 
Date/Time
WST
Temp

°C
Wind Pressure Rain
since 9am
mm
Weather Cloud Vis
km
Sea
Height
m
Swell
Dir
 
Speed
knots
Gust
knots
hPa Trend Height
m
Period
s
Dir
18/11:30pm 20.6 S 7 8 1015.2 - 0.0 - - 10 - - - -
18/11:00pm 21.1 S 7 8 1015.4 - 0.0 - - 10 - - - -
18/10:30pm 21.4 S 7 8 1015.4 - 0.0 - - 10 - - - -
18/10:00pm 22.3 S 9 10 1015.5 - 0.0 - - 10 - - - -
18/09:30pm 22.6 SSW 6 7 1015.4 - 0.0 - - 10 - - - -
18/09:00pm 24.0 SSW 8 9 1015.2 - 0.0 - - 10 - - - -
18/08:30pm 25.9 WSW 4 5 1015.0 - 0.0 - - 10 - - - -
18/08:00pm 27.0 WSW 5 6 1014.7 - 0.0 - - 10 - - - -
18/07:30pm 28.1 WSW 8 10 1014.6 - 0.0 - - 10 - - - -
18/07:00pm 28.5 W 6 8 1014.3 - 0.0 - - 10 - - - -
18/06:30pm 29.2 N 5 9 1013.9 - 0.0 - - 10 - - - -
18/06:00pm 31.3 NNE 5 6 1013.5 - 0.0 - - 10 - - - -
18/05:30pm 33.3 N 7 9 1013.3 - 0.0 - - 10 - - - -
18/05:00pm 34.0 N 7 9 1013.0 - 0.0 - - 10 - - - -
18/04:30pm 34.4 N 7 10 1012.9 - 0.0 - - 10 - - - -
18/04:00pm 34.5 N 7 9 1013.0 - 0.0 - - 10 - - - -
18/03:30pm 34.3 N 6 10 1013.1 - 0.0 - - 10 - - - -
18/03:00pm 33.3 NE 4 6 1013.1 - 0.0 - - 10 - - - -
18/02:30pm 31.9 NE 8 11 1013.1 - 0.0 - - 10 - - - -
18/02:00pm 32.0 ENE 8 9 1013.1 - 0.0 - - 10 - - - -
18/01:30pm 31.0 ENE 8 10 1013.3 - 0.0 - - 10 - - - -
18/01:00pm 30.7 ENE 8 10 1013.6 - 0.0 - - 10 - - - -
18/12:30pm 30.9 E 8 9 1014.0 - 0.0 - - 10 - - - -
18/12:00pm 30.7 E 9 11 1014.1 - 0.0 - - 10 - - - -
18/11:30am 29.5 E 11 13 1014.5 - 0.0 - - 10 - - - -
18/11:00am 29.4 E 12 15 1014.7 - 0.0 - - 10 - - - -
18/10:30am 32.2 ESE 6 9 1014.6 - 0.0 - - 10 - - - -
18/10:00am 32.0 SW 4 6 1014.7 - 0.0 - - 10 - - - -
18/09:30am 30.5 WSW 4 6 1014.7 - 0.0 - - 10 - - - -
18/09:00am 28.9 SSW 6 8 1014.8 - 0.0 - - 10 - - - -
18/08:30am 26.6 SW 4 6 1015.0 - 0.0 - - 10 - - - -
18/08:00am 24.7 CALM 0 3 1014.8 - 0.0 - - 10 - - - -
18/07:30am 20.7 WNW 3 5 1014.6 - 0.0 - - 10 - - - -

Other Formats:

Comma delimited format used in spreadsheet applications
http://www.bom.gov.au/fwo/IDW60701/IDW60701.94302.axf

JavaScript Object Notation format (JSON) in row-major order
http://www.bom.gov.au/fwo/IDW60701/IDW60701.94302.json